Millers Tavrn, Virginia
Current Conditions -  °F | °C
As of 4:55 AM on Thursday 23 Oct 2014 (Local Time) from KXSA Reporting Station
Overcast Overcast  
Wind Chill: 53°   Ceiling: 3400
Heat Index: 53°   Visibility: 10mi
Dew Point: 40°   Wind: 12mph
Humidity: 61%   Direction: 290°WNW
Pressure: 29.89"   Gusts: 17mph
Location:  37.8283°N, 76.9455°W
Report Text: KXSA 230855Z AUTO 29010G15KT 250V320 10SM OVC034 12/04 A2989 RMK AO2 T01150042
Loading
Personal Weather Stations






























Interactive Weather Map New forecast layout! Learn more

10-Day Weather Forecast

Advertisements
Track Severe Weather on mobile